Portada
METAR-TAF:

METAR-TAF

Aeroports :

Barnaül, Rússia

latitud: 53-26N, longitud: 083-31E, altitud: 252 m

Observació

L'informe es va fer fa 28 minuts, a les 01:30 UTC
Vent 10 kt del Sud-Oest
Temperatura -12°C
Humitat 61%
Pressió 1017 hPa
Visibilitat 10 km o més
sense núvols per sota de 1500 mi sense presència de cumulonimbus.

METAR: UNBB 290130Z 22005MPS CAVOK M12/M18 Q1017 R24/910360 NOSIG RMK QFE740

Hora: 08:58 (01:58 UTC)

Pronòstic

L'informe es va fer fa 2 hores i 58 minuts, a les 23:00 UTC
Pronòstic vàlid del 29 a les 00 UTC al 29 a les 24 UTC
Vent 6 kt del Sud-Oest amb ràfegues de 16 kt
Visibilitat 10 km o més
Núvols disperses a una alçada de 4000 ft
Temporalment
l' 29 a les 00 UTC al 29 a les 12 UTC
Vent 16 kt del Oest/Sud-Oest amb ràfegues de 31 kt

TAF: UNBB 282300Z 2900/2924 22003G08MPS 9999 SCT040 TEMPO 2900/2912 25008G16MPS

Observacions i pronòstics meteorològics de més de 4000 aeroports (METAR i TAF).

Les estacions disponibles són els punts grocs i vermells al mapa.

Posi el ratolí al punt desitjat per veure el nom de l'estació.

Feu clic per veure les observacions i els pronòstics meteorològics.

Per canviar el mapa: feu clic els botons verds amb una creu de color negre per apropar; al botó verd amb un guió per allunyar la imatge; o en les fletxes verdes per a mapes adjacents.


METAR-TAF: